createdAt,value
2022-11-06T00:01:08.260Z,4.18
2022-11-06T00:06:29.791Z,3.50
2022-11-06T00:11:32.464Z,3.45
2022-11-06T00:16:38.073Z,3.80
2022-11-06T00:21:42.997Z,3.97
2022-11-06T00:26:49.853Z,3.88
2022-11-06T00:31:57.028Z,3.55
2022-11-06T00:36:59.636Z,4.00
2022-11-06T00:42:02.405Z,3.70
2022-11-06T00:47:06.398Z,3.72
2022-11-06T00:52:09.006Z,3.90
2022-11-06T00:57:11.685Z,3.63
2022-11-06T01:02:17.278Z,3.60
2022-11-06T01:07:19.996Z,3.55
2022-11-06T01:12:22.639Z,3.30
2022-11-06T01:17:26.536Z,3.05
2022-11-06T01:22:29.133Z,3.58
2022-11-06T01:27:31.802Z,3.60
2022-11-06T01:32:36.500Z,4.05
2022-11-06T01:37:39.075Z,3.70
2022-11-06T01:42:41.744Z,3.70
2022-11-06T01:47:46.248Z,3.05
2022-11-06T01:52:50.083Z,3.42
2022-11-06T01:57:52.995Z,3.38
2022-11-06T02:02:57.141Z,4.32
2022-11-06T02:08:01.173Z,3.15
2022-11-06T02:13:24.812Z,4.05
2022-11-06T02:18:57.137Z,3.97
2022-11-06T02:24:24.709Z,3.88
2022-11-06T02:29:33.348Z,3.90
2022-11-06T02:34:37.483Z,3.60
2022-11-06T02:39:41.852Z,3.95
2022-11-06T02:44:49.300Z,4.03
2022-11-06T02:49:55.345Z,4.15
2022-11-06T02:55:06.059Z,4.45
2022-11-06T03:00:12.543Z,4.70
2022-11-06T03:05:18.543Z,4.20
2022-11-06T03:10:21.705Z,4.07
2022-11-06T03:15:31.809Z,4.20
2022-11-06T03:20:38.349Z,4.72
2022-11-06T03:25:45.739Z,4.13
2022-11-06T03:30:51.500Z,4.18
2022-11-06T03:35:58.088Z,4.80
2022-11-06T03:41:03.752Z,4.30
2022-11-06T03:46:12.804Z,4.72
2022-11-06T03:51:19.378Z,4.63
2022-11-06T03:56:25.096Z,3.83
2022-11-06T04:01:32.831Z,4.20
2022-11-06T04:06:38.832Z,4.38
2022-11-06T04:12:02.266Z,5.18
2022-11-06T04:17:08.613Z,3.95
2022-11-06T04:22:23.491Z,4.47
2022-11-06T04:27:34.788Z,3.83
2022-11-06T04:33:00.121Z,4.80
2022-11-06T04:38:05.734Z,5.28
2022-11-06T04:43:12.785Z,4.68
2022-11-06T04:48:17.318Z,4.30
2022-11-06T04:53:21.137Z,4.65
2022-11-06T04:58:23.746Z,5.57
2022-11-06T05:03:27.739Z,4.38
2022-11-06T05:08:30.484Z,4.57
2022-11-06T05:13:33.115Z,4.68
2022-11-06T05:18:37.328Z,4.80
2022-11-06T05:23:40.149Z,4.40
2022-11-06T05:28:42.867Z,4.43
2022-11-06T05:33:46.777Z,4.72
2022-11-06T05:38:49.491Z,4.35
2022-11-06T05:43:52.487Z,4.38
2022-11-06T05:48:56.424Z,5.13
2022-11-06T05:53:59.001Z,4.93
2022-11-06T05:59:01.579Z,5.20
2022-11-06T06:04:05.791Z,5.20
2022-11-06T06:09:08.370Z,5.13
2022-11-06T06:14:11.035Z,5.22
2022-11-06T06:19:15.324Z,5.22
2022-11-06T06:24:18.208Z,5.50
2022-11-06T06:29:20.863Z,5.22
2022-11-06T06:34:24.790Z,4.57
2022-11-06T06:39:27.409Z,5.32
2022-11-06T06:44:30.175Z,5.38
2022-11-06T06:49:35.701Z,5.35
2022-11-06T06:54:38.645Z,4.88
2022-11-06T06:59:41.240Z,5.50
2022-11-06T07:04:45.230Z,5.57
2022-11-06T07:09:47.793Z,5.22
2022-11-06T07:14:50.574Z,6.15
2022-11-06T07:19:54.630Z,5.13
2022-11-06T07:24:57.291Z,4.80
2022-11-06T07:30:00.446Z,5.07
2022-11-06T07:35:04.690Z,4.43
2022-11-06T07:40:09.672Z,4.82
2022-11-06T07:45:13.382Z,4.78
2022-11-06T07:50:17.348Z,4.90
2022-11-06T07:55:20.174Z,5.07
2022-11-06T08:00:22.750Z,4.63
2022-11-06T08:05:26.724Z,4.85
2022-11-06T08:10:29.454Z,5.22
2022-11-06T08:15:32.293Z,4.63
2022-11-06T08:20:36.449Z,4.68
2022-11-06T08:25:39.190Z,4.38
2022-11-06T08:30:41.770Z,4.03
2022-11-06T08:35:45.715Z,4.45
2022-11-06T08:40:53.460Z,3.80
2022-11-06T08:45:56.612Z,4.20
2022-11-06T08:51:00.639Z,4.40
2022-11-06T08:56:04.149Z,4.53
2022-11-06T09:01:07.006Z,3.67
2022-11-06T09:06:11.047Z,3.20
2022-11-06T09:11:13.724Z,3.95
2022-11-06T09:16:17.456Z,4.38
2022-11-06T09:21:21.443Z,3.80
2022-11-06T09:26:24.054Z,3.35
2022-11-06T09:31:26.778Z,3.10
2022-11-06T09:36:30.747Z,3.72
2022-11-06T09:41:42.437Z,3.70
2022-11-06T09:46:46.692Z,2.92
2022-11-06T09:51:53.756Z,3.60
2022-11-06T09:57:02.346Z,3.20
2022-11-06T10:02:19.151Z,2.47
2022-11-06T10:07:31.496Z,2.88
2022-11-06T10:12:43.295Z,2.40
2022-11-06T10:17:55.068Z,2.72
2022-11-06T10:23:04.854Z,2.13
2022-11-06T10:28:17.110Z,2.28
2022-11-06T10:33:37.845Z,2.15
2022-11-06T10:38:44.210Z,1.63
2022-11-06T10:43:50.539Z,1.88
2022-11-06T10:48:58.151Z,1.80
2022-11-06T10:54:10.209Z,1.45
2022-11-06T10:59:13.094Z,1.45
2022-11-06T11:04:15.676Z,1.60
2022-11-06T11:09:37.340Z,1.52
2022-11-06T11:14:40.009Z,1.23
2022-11-06T11:19:44.015Z,1.45
2022-11-06T11:25:00.929Z,1.63
2022-11-06T11:30:05.735Z,1.20
2022-11-06T11:35:12.650Z,1.35
2022-11-06T11:40:36.071Z,1.15
2022-11-06T11:45:38.905Z,1.33
2022-11-06T11:50:41.499Z,2.30
2022-11-06T11:55:46.482Z,1.77
2022-11-06T12:00:55.685Z,1.60
2022-11-06T12:06:06.971Z,1.60
2022-11-06T12:11:17.391Z,1.50
2022-11-06T12:16:21.343Z,2.95
2022-11-06T12:21:26.283Z,1.40
2022-11-06T12:26:33.847Z,1.30
2022-11-06T12:31:40.111Z,1.40
2022-11-06T12:36:46.872Z,1.60
2022-11-06T12:41:51.284Z,1.80
2022-11-06T12:46:58.973Z,1.55
2022-11-06T12:52:10.677Z,1.50
2022-11-06T12:57:22.990Z,1.70
2022-11-06T13:02:36.381Z,1.50
2022-11-06T13:07:52.263Z,1.33
2022-11-06T13:13:10.304Z,1.60
2022-11-06T13:18:21.747Z,1.65
2022-11-06T13:23:27.921Z,1.63
2022-11-06T13:28:34.956Z,1.50
2022-11-06T13:33:39.886Z,1.58
2022-11-06T13:38:46.836Z,1.45
2022-11-06T13:43:54.147Z,1.30
2022-11-06T13:49:08.726Z,2.10
2022-11-06T13:54:18.959Z,1.50
2022-11-06T13:59:59.987Z,1.60
2022-11-06T14:05:38.395Z,1.80
2022-11-06T14:10:50.037Z,1.60
2022-11-06T14:16:00.339Z,2.08
2022-11-06T14:21:42.630Z,1.77
2022-11-06T14:26:46.750Z,1.80
2022-11-06T14:32:02.395Z,1.60
2022-11-06T14:37:38.592Z,1.90
2022-11-06T14:42:43.192Z,1.70
2022-11-06T14:47:54.793Z,1.88
2022-11-06T14:52:59.647Z,2.33
2022-11-06T14:58:14.633Z,1.80
2022-11-06T15:03:24.132Z,2.15
2022-11-06T15:09:09.663Z,2.08
2022-11-06T15:14:49.575Z,2.40
2022-11-06T15:20:00.387Z,2.83
2022-11-06T15:25:07.827Z,1.80
2022-11-06T15:30:15.919Z,2.25
2022-11-06T15:35:22.108Z,2.53
2022-11-06T15:40:29.807Z,1.92
2022-11-06T15:45:32.787Z,2.10
2022-11-06T15:50:38.030Z,2.97
2022-11-06T15:55:45.099Z,2.28
2022-11-06T16:00:47.682Z,2.65
2022-11-06T16:05:52.348Z,2.60
2022-11-06T16:10:55.757Z,4.85
2022-11-06T16:16:00.429Z,3.95
2022-11-06T16:21:16.574Z,3.38
2022-11-06T16:26:23.952Z,2.97
2022-11-06T16:31:28.955Z,5.07
2022-11-06T16:36:53.317Z,5.63
2022-11-06T16:42:03.312Z,4.93
2022-11-06T16:47:18.080Z,4.00
2022-11-06T16:52:25.690Z,4.43
2022-11-06T16:57:30.118Z,4.40
2022-11-06T17:02:34.429Z,5.60
2022-11-06T17:07:39.803Z,5.97
2022-11-06T17:12:42.485Z,4.13
2022-11-06T17:17:45.185Z,6.55
2022-11-06T17:22:50.781Z,9.57
2022-11-06T17:27:54.020Z,7.32
2022-11-06T17:32:56.625Z,6.43
2022-11-06T17:38:06.100Z,5.20
2022-11-06T17:43:10.504Z,4.90
2022-11-06T17:48:13.472Z,4.70
2022-11-06T17:53:17.421Z,4.10
2022-11-06T17:58:20.132Z,3.80
2022-11-06T18:03:23.615Z,4.40
2022-11-06T18:08:29.681Z,4.20
2022-11-06T18:13:32.549Z,4.85
2022-11-06T18:18:35.157Z,4.80
2022-11-06T18:23:39.315Z,6.28
2022-11-06T18:28:41.995Z,4.78
2022-11-06T18:33:44.601Z,4.30
2022-11-06T18:38:48.589Z,4.28
2022-11-06T18:43:56.605Z,4.18
2022-11-06T18:48:59.745Z,4.78
2022-11-06T18:54:05.600Z,5.10
2022-11-06T18:59:09.931Z,4.63
2022-11-06T19:04:12.779Z,4.95
2022-11-06T19:09:16.835Z,4.53
2022-11-06T19:14:19.512Z,5.47
2022-11-06T19:19:25.473Z,5.45
2022-11-06T19:24:30.142Z,5.60
2022-11-06T19:29:32.845Z,5.53
2022-11-06T19:34:39.221Z,6.78
2022-11-06T19:39:43.507Z,7.30
2022-11-06T19:44:46.193Z,6.80
2022-11-06T19:49:48.782Z,7.32
2022-11-06T19:55:25.815Z,4.97
2022-11-06T20:00:16.274Z,5.07
2022-11-06T20:05:19.068Z,6.03
2022-11-06T20:10:23.289Z,5.90
2022-11-06T20:15:26.141Z,6.22
2022-11-06T20:20:34.816Z,6.47
2022-11-06T20:25:42.456Z,6.55
2022-11-06T20:30:45.079Z,6.00
2022-11-06T20:35:48.015Z,5.30
2022-11-06T20:40:55.447Z,5.50
2022-11-06T20:46:00.276Z,5.28
2022-11-06T20:51:05.333Z,5.30
2022-11-06T20:56:11.896Z,5.65
2022-11-06T21:01:17.944Z,5.10
2022-11-06T21:06:24.302Z,3.63
2022-11-06T21:11:28.660Z,4.88
2022-11-06T21:16:32.806Z,4.13
2022-11-06T21:21:37.054Z,4.97
2022-11-06T21:26:41.247Z,4.65
2022-11-06T21:31:49.073Z,4.97
2022-11-06T21:36:52.144Z,4.93
2022-11-06T21:41:56.287Z,5.32
2022-11-06T21:46:58.836Z,4.82
2022-11-06T21:52:26.505Z,4.65
2022-11-06T21:57:33.098Z,4.28
2022-11-06T22:02:35.770Z,3.78
2022-11-06T22:07:38.470Z,4.30
2022-11-06T22:12:42.424Z,3.63
2022-11-06T22:17:45.380Z,3.38
2022-11-06T22:22:47.966Z,3.50
2022-11-06T22:27:52.050Z,3.35
2022-11-06T22:32:54.726Z,3.45
2022-11-06T22:37:59.622Z,3.40
2022-11-06T22:43:03.684Z,3.10
2022-11-06T22:48:06.651Z,3.88
2022-11-06T22:53:14.660Z,3.25
2022-11-06T22:58:19.055Z,3.75
2022-11-06T23:03:22.369Z,3.45
2022-11-06T23:08:25.028Z,4.22
2022-11-06T23:13:29.161Z,3.90
2022-11-06T23:18:31.851Z,4.13
2022-11-06T23:23:34.419Z,3.90
2022-11-06T23:28:38.392Z,3.95
2022-11-06T23:33:41.086Z,3.40
2022-11-06T23:38:44.790Z,3.63
2022-11-06T23:43:51.956Z,4.18
2022-11-06T23:48:54.702Z,4.10
2022-11-06T23:53:57.303Z,3.83
2022-11-06T23:59:01.229Z,3.35
